Time;durP1;ratioP1;P1;durP2;ratioP2;P2;SDS_P1;SDS_P2;PMS_P1;PMS_P2;Temp;Humidity;BMP_temperature;BMP_pressure;BME280_temperature;BME280_humidity;BME280_pressure;Samples;Min_cycle;Max_cycle;Signal;HPM_P1;HPM_P2
2024/03/13 00:01:06;;;;;;;32.05;9.05;;;;;;;7.15;100.00;101008.50;5033407;28;20040;-77
2024/03/13 00:03:33;;;;;;;16.48;7.10;;;;;;;7.18;100.00;101017.78;5036998;28;20033;-78
2024/03/13 00:05:59;;;;;;;18.52;7.47;;;;;;;7.13;100.00;101012.16;5062629;28;20029;-77
2024/03/13 00:08:26;;;;;;;15.73;7.13;;;;;;;7.08;100.00;101014.31;5048727;28;20098;-78
2024/03/13 00:10:52;;;;;;;20.95;8.35;;;;;;;7.01;100.00;101012.25;5051147;28;20028;-77
2024/03/13 00:13:17;;;;;;;17.05;7.53;;;;;;;7.05;100.00;101019.75;5030881;28;20036;-77
2024/03/13 00:15:43;;;;;;;15.68;8.50;;;;;;;7.12;100.00;101026.00;5051413;28;20039;-77
2024/03/13 00:18:09;;;;;;;22.25;8.35;;;;;;;7.09;100.00;101019.34;5050819;28;20501;-77
2024/03/13 00:20:34;;;;;;;17.40;8.75;;;;;;;7.14;100.00;101021.53;5049615;28;20544;-77
2024/03/13 00:23:01;;;;;;;18.00;8.20;;;;;;;7.15;100.00;101013.66;5046167;28;20079;-78
2024/03/13 00:25:28;;;;;;;19.05;7.78;;;;;;;7.09;100.00;101024.50;5061797;28;20386;-77
2024/03/13 00:27:55;;;;;;;21.27;8.20;;;;;;;7.12;100.00;101021.69;5031324;28;20039;-78
2024/03/13 00:30:23;;;;;;;19.25;8.50;;;;;;;7.11;100.00;101022.59;5049832;28;20035;-77
2024/03/13 00:32:53;;;;;;;17.58;8.52;;;;;;;7.07;100.00;101031.56;5048814;28;20119;-76
2024/03/13 00:35:22;;;;;;;17.17;8.55;;;;;;;7.09;100.00;101027.09;5034461;28;20056;-77
2024/03/13 00:37:49;;;;;;;16.60;7.60;;;;;;;7.07;100.00;101030.75;5061859;28;20032;-77
2024/03/13 00:40:15;;;;;;;16.45;8.60;;;;;;;7.09;100.00;101028.84;5062391;28;20064;-76
2024/03/13 00:42:42;;;;;;;16.50;7.60;;;;;;;7.22;100.00;101025.09;5047453;28;20384;-77
2024/03/13 00:45:08;;;;;;;19.42;8.95;;;;;;;7.25;100.00;101030.97;5049414;28;20032;-78
2024/03/13 00:47:34;;;;;;;14.73;7.72;;;;;;;7.18;100.00;101033.25;5059072;28;20041;-77
2024/03/13 00:49:59;;;;;;;14.68;7.55;;;;;;;7.19;100.00;101029.72;5051999;28;20129;-76
2024/03/13 00:52:25;;;;;;;16.33;8.63;;;;;;;7.11;100.00;101030.34;5051282;28;20029;-77
2024/03/13 00:54:50;;;;;;;15.50;7.05;;;;;;;7.09;100.00;101027.09;5068663;28;20059;-77
2024/03/13 00:57:17;;;;;;;16.08;8.20;;;;;;;7.08;100.00;101020.28;5054209;28;20025;-77
2024/03/13 00:59:43;;;;;;;17.10;8.20;;;;;;;7.24;100.00;101019.03;5063367;28;20083;-77
2024/03/13 01:02:10;;;;;;;15.23;7.55;;;;;;;7.31;100.00;101022.69;5070102;28;20111;-76
2024/03/13 01:04:38;;;;;;;13.70;7.20;;;;;;;7.34;100.00;101031.00;5049831;28;20036;-77
2024/03/13 01:07:06;;;;;;;11.75;6.10;;;;;;;7.31;100.00;101025.28;5034596;28;20067;-77
2024/03/13 01:09:32;;;;;;;11.00;6.35;;;;;;;7.27;100.00;101023.91;5066133;28;20063;-76
2024/03/13 01:11:58;;;;;;;12.02;6.72;;;;;;;7.25;100.00;101028.38;5055446;28;20059;-77
2024/03/13 01:14:23;;;;;;;12.60;6.93;;;;;;;7.22;100.00;101022.53;5052787;28;20036;-77
2024/03/13 01:16:51;;;;;;;12.85;6.82;;;;;;;7.11;100.00;101032.13;5048878;28;20091;-78
2024/03/13 01:19:19;;;;;;;17.25;6.80;;;;;;;7.15;100.00;101030.91;5054808;28;20043;-77
2024/03/13 01:21:48;;;;;;;16.48;7.10;;;;;;;7.21;100.00;101030.38;5070576;28;20025;-76
2024/03/13 01:24:16;;;;;;;18.02;7.75;;;;;;;7.22;100.00;101037.19;5057718;28;20037;-77
2024/03/13 01:26:42;;;;;;;12.77;6.50;;;;;;;7.18;100.00;101028.91;5057047;28;20040;-77
2024/03/13 01:29:08;;;;;;;11.23;6.60;;;;;;;7.18;100.00;101030.66;5058378;28;20060;-77
2024/03/13 01:31:35;;;;;;;14.27;7.85;;;;;;;7.26;100.00;101030.84;5066426;28;20036;-77
2024/03/13 01:34:02;;;;;;;11.43;6.70;;;;;;;7.22;100.00;101029.47;5055923;28;20516;-76
2024/03/13 01:39:12;;;;;;;12.48;6.82;;;;;;;7.28;100.00;101025.56;5070069;28;20124;-78
2024/03/13 01:55:39;;;;;;;11.98;6.13;;;;;;;7.27;100.00;101032.47;5056977;28;20032;-76
2024/03/13 02:03:15;;;;;;;11.75;6.38;;;;;;;7.31;100.00;101038.16;5057456;28;20032;-77
2024/03/13 02:05:45;;;;;;;9.27;5.75;;;;;;;7.21;100.00;101038.13;5056096;28;20502;-76
2024/03/13 02:08:14;;;;;;;12.27;6.53;;;;;;;7.26;100.00;101036.00;5070684;28;20075;-76
2024/03/13 02:10:40;;;;;;;9.88;5.53;;;;;;;7.31;100.00;101030.44;5053166;28;20043;-78
2024/03/13 02:13:12;;;;;;;12.80;7.22;;;;;;;7.36;100.00;101028.28;5058217;28;20032;-77
2024/03/13 02:15:42;;;;;;;12.53;7.27;;;;;;;7.28;100.00;101028.94;5067548;28;20070;-77
2024/03/13 02:18:30;;;;;;;13.52;8.00;;;;;;;7.35;100.00;101026.69;5048514;28;20020;-78
2024/03/13 02:20:58;;;;;;;21.60;10.02;;;;;;;7.39;100.00;101033.22;5068697;28;20127;-76
2024/03/13 02:23:28;;;;;;;20.48;11.07;;;;;;;7.34;100.00;101028.41;5067268;28;20032;-76
2024/03/13 02:25:55;;;;;;;20.55;11.65;;;;;;;7.30;100.00;101021.88;5066885;28;20032;-76
2024/03/13 02:28:33;;;;;;;20.70;12.05;;;;;;;7.36;100.00;101025.72;5068049;28;20036;-77
2024/03/13 02:31:01;;;;;;;18.15;10.75;;;;;;;7.36;100.00;101025.72;5051964;28;21576;-76
2024/03/13 02:33:27;;;;;;;20.35;11.27;;;;;;;7.27;100.00;101024.75;5044299;28;20119;-75
2024/03/13 02:35:53;;;;;;;20.98;10.95;;;;;;;7.24;100.00;101017.25;5037812;28;20036;-77
2024/03/13 02:38:19;;;;;;;20.52;10.57;;;;;;;7.29;100.00;101020.28;5067519;28;20043;-77
2024/03/13 02:40:44;;;;;;;16.92;9.65;;;;;;;7.31;100.00;101015.78;5064259;28;20029;-76
2024/03/13 02:43:10;;;;;;;15.40;9.30;;;;;;;7.33;100.00;101013.09;5051975;28;20550;-78
2024/03/13 02:45:35;;;;;;;15.85;9.02;;;;;;;7.32;100.00;101022.56;5033702;28;20097;-76
2024/03/13 02:48:01;;;;;;;16.48;8.85;;;;;;;7.24;100.00;101019.03;5038113;28;20044;-76
2024/03/13 02:50:28;;;;;;;17.33;9.60;;;;;;;7.31;100.00;101020.94;5054015;28;20476;-76
2024/03/13 02:52:54;;;;;;;15.88;8.98;;;;;;;7.33;100.00;101026.00;5054883;28;20112;-77
2024/03/13 02:55:20;;;;;;;13.60;8.60;;;;;;;7.31;100.00;101025.28;5035311;28;20053;-76
2024/03/13 02:57:45;;;;;;;14.98;8.77;;;;;;;7.27;100.00;101026.47;5052452;28;20032;-76
2024/03/13 03:00:11;;;;;;;17.95;8.27;;;;;;;7.23;100.00;101025.91;5034168;28;20029;-76
2024/03/13 03:02:37;;;;;;;16.33;9.43;;;;;;;7.37;100.00;101027.34;5053725;28;20048;-76
2024/03/13 03:05:06;;;;;;;15.65;8.90;;;;;;;7.28;100.00;101030.72;5055317;28;20024;-76
2024/03/13 03:07:33;;;;;;;16.65;8.98;;;;;;;7.27;100.00;101029.91;5055119;28;20044;-76
2024/03/13 03:09:59;;;;;;;17.48;9.32;;;;;;;7.36;100.00;101031.69;5053739;28;20037;-76
2024/03/13 03:12:26;;;;;;;18.83;10.75;;;;;;;7.32;100.00;101029.50;5065691;28;20064;-76
2024/03/13 03:14:54;;;;;;;18.17;9.88;;;;;;;7.36;100.00;101028.28;5040664;28;20044;-76
2024/03/13 03:17:21;;;;;;;18.02;10.02;;;;;;;7.36;100.00;101030.88;5067292;28;20111;-76
2024/03/13 03:19:49;;;;;;;20.27;11.00;;;;;;;7.38;100.00;101034.13;5048114;28;20029;-77
2024/03/13 03:22:15;;;;;;;19.50;10.55;;;;;;;7.41;100.00;101033.88;5053069;28;20024;-77
2024/03/13 03:24:40;;;;;;;18.70;10.48;;;;;;;7.35;100.00;101026.69;5055456;28;20035;-76
2024/03/13 03:27:06;;;;;;;19.85;10.63;;;;;;;7.37;100.00;101035.09;5039372;28;20043;-76
2024/03/13 03:29:32;;;;;;;21.38;11.27;;;;;;;7.43;100.00;101034.56;5048945;28;20214;-77
2024/03/13 03:31:57;;;;;;;22.63;11.68;;;;;;;7.46;100.00;101036.06;5036343;28;20127;-77
2024/03/13 03:34:24;;;;;;;18.15;10.70;;;;;;;7.50;100.00;101037.47;5036751;28;20028;-77
2024/03/13 03:36:49;;;;;;;21.55;11.38;;;;;;;7.52;100.00;101038.16;5053414;28;20082;-78
2024/03/13 03:39:15;;;;;;;21.90;11.13;;;;;;;7.43;100.00;101033.75;5055674;28;20040;-77
2024/03/13 03:41:41;;;;;;;23.52;11.85;;;;;;;7.51;100.00;101044.25;5053337;28;20028;-76
2024/03/13 03:44:11;;;;;;;17.75;10.05;;;;;;;7.44;100.00;101040.53;5054199;28;20060;-76
2024/03/13 03:46:42;;;;;;;18.80;10.90;;;;;;;7.52;100.00;101038.16;5064495;28;21769;-76
2024/03/13 03:49:08;;;;;;;22.40;11.63;;;;;;;7.52;100.00;101036.38;5053962;28;20055;-76
2024/03/13 03:51:33;;;;;;;20.35;11.18;;;;;;;7.48;100.00;101040.16;5051130;28;20487;-77
2024/03/13 03:53:59;;;;;;;19.92;11.20;;;;;;;7.45;100.00;101039.63;5035627;28;20641;-76
2024/03/13 03:56:26;;;;;;;21.63;10.82;;;;;;;7.58;100.00;101037.63;5046938;28;20521;-76
2024/03/13 03:58:54;;;;;;;23.10;12.45;;;;;;;7.59;100.00;101034.91;5034453;28;20036;-77
2024/03/13 04:01:20;;;;;;;21.85;12.13;;;;;;;7.51;100.00;101037.31;5029094;28;20036;-76
2024/03/13 04:03:47;;;;;;;23.27;11.95;;;;;;;7.47;100.00;101041.09;5052203;28;20036;-78
2024/03/13 04:06:19;;;;;;;24.38;12.50;;;;;;;7.45;100.00;101043.00;5034008;28;20058;-77
2024/03/13 04:08:47;;;;;;;21.20;12.25;;;;;;;7.43;100.00;101044.91;5039505;28;20028;-77
2024/03/13 04:11:13;;;;;;;23.10;12.07;;;;;;;7.48;100.00;101047.06;5053984;28;20043;-76
2024/03/13 04:13:42;;;;;;;25.42;12.65;;;;;;;7.52;100.00;101049.28;5050450;28;20032;-77
2024/03/13 04:16:10;;;;;;;23.08;12.38;;;;;;;7.56;100.00;101053.22;5061627;28;20033;-76
2024/03/13 04:18:36;;;;;;;24.33;11.68;;;;;;;7.45;100.00;101055.09;5033432;28;20029;-77
2024/03/13 04:21:03;;;;;;;21.67;11.80;;;;;;;7.44;100.00;101053.44;5050366;28;20024;-77
2024/03/13 04:23:31;;;;;;;19.75;11.00;;;;;;;7.40;100.00;101061.47;5064239;28;20510;-78
2024/03/13 04:25:57;;;;;;;25.52;12.82;;;;;;;7.60;100.00;101061.53;5050211;28;20036;-77
2024/03/13 04:28:23;;;;;;;21.55;11.70;;;;;;;7.57;100.00;101060.03;5062377;28;20037;-77
2024/03/13 04:30:49;;;;;;;22.27;11.52;;;;;;;7.59;100.00;101062.47;5064354;28;20767;-77
2024/03/13 04:33:16;;;;;;;23.95;11.60;;;;;;;7.63;100.00;101063.88;5051059;28;20517;-77
2024/03/13 04:35:45;;;;;;;23.30;11.50;;;;;;;7.52;100.00;101063.94;5047545;28;20433;-76
2024/03/13 04:38:13;;;;;;;24.90;11.80;;;;;;;7.55;100.00;101067.09;5048861;28;20107;-79
2024/03/13 04:40:39;;;;;;;21.45;11.05;;;;;;;7.51;100.00;101060.53;5060197;28;20033;-78
2024/03/13 04:43:08;;;;;;;21.45;10.73;;;;;;;7.59;100.00;101062.47;5048570;28;20123;-78
2024/03/13 04:45:36;;;;;;;23.38;11.32;;;;;;;7.56;100.00;101068.72;5049593;28;20177;-77
2024/03/13 04:48:02;;;;;;;20.80;10.82;;;;;;;7.57;100.00;101075.53;5032682;28;20387;-77
2024/03/13 04:50:27;;;;;;;22.10;10.50;;;;;;;7.60;100.00;101072.66;5035560;28;20043;-77
2024/03/13 04:52:53;;;;;;;21.60;10.50;;;;;;;7.63;100.00;101078.50;5044723;28;20040;-76
2024/03/13 04:55:18;;;;;;;18.73;10.63;;;;;;;7.65;100.00;101080.03;5062104;28;20041;-78
2024/03/13 04:57:44;;;;;;;18.38;10.15;;;;;;;7.54;100.00;101077.53;5062081;28;20070;-77
2024/03/13 05:00:11;;;;;;;22.23;11.55;;;;;;;7.62;100.00;101079.47;5050110;28;20040;-76
2024/03/13 05:02:36;;;;;;;21.63;10.75;;;;;;;7.67;100.00;101082.50;5031572;28;20407;-78
2024/03/13 05:05:02;;;;;;;18.13;9.77;;;;;;;7.58;100.00;101081.50;5031907;28;20028;-77
2024/03/13 05:07:27;;;;;;;18.92;10.48;;;;;;;7.64;100.00;101083.56;5047908;28;20098;-77
2024/03/13 05:09:53;;;;;;;19.90;10.02;;;;;;;7.65;100.00;101092.09;5048330;28;20048;-77
2024/03/13 05:12:18;;;;;;;20.80;11.48;;;;;;;7.66;100.00;101086.00;5031051;28;20045;-77
2024/03/13 05:14:44;;;;;;;22.42;11.52;;;;;;;7.69;100.00;101089.16;5062349;28;20048;-77
2024/03/13 05:17:15;;;;;;;23.13;11.30;;;;;;;7.69;100.00;101091.72;5050025;28;20093;-76
2024/03/13 05:19:42;;;;;;;19.77;9.85;;;;;;;7.64;100.00;101100.81;5046686;28;20106;-76
2024/03/13 05:22:09;;;;;;;18.67;9.93;;;;;;;7.70;100.00;101089.97;5044653;28;20036;-78
2024/03/13 05:24:35;;;;;;;21.88;11.85;;;;;;;7.71;100.00;101094.19;5061266;28;20047;-80
2024/03/13 05:27:01;;;;;;;22.83;10.70;;;;;;;7.64;100.00;101096.47;5050514;28;20040;-79
2024/03/13 05:29:27;;;;;;;23.75;11.25;;;;;;;7.65;100.00;101099.84;5034858;28;20029;-77
2024/03/13 05:31:54;;;;;;;20.73;10.43;;;;;;;7.64;100.00;101103.38;5063130;28;20383;-80
2024/03/13 05:34:19;;;;;;;26.80;11.35;;;;;;;7.74;100.00;101099.91;5030609;28;20098;-77
2024/03/13 05:36:45;;;;;;;23.13;10.75;;;;;;;7.67;100.00;101103.94;5061964;28;20041;-78
2024/03/13 05:39:12;;;;;;;22.70;10.48;;;;;;;7.68;100.00;101103.00;5050192;28;20037;-77
2024/03/13 05:41:38;;;;;;;24.60;10.70;;;;;;;7.76;100.00;101102.34;5047925;28;20483;-77
2024/03/13 05:44:04;;;;;;;19.23;10.00;;;;;;;7.71;100.00;101109.69;5031733;28;20044;-77
2024/03/13 05:46:30;;;;;;;22.27;10.82;;;;;;;7.79;100.00;101115.81;5053002;28;20031;-77
2024/03/13 05:48:56;;;;;;;22.45;11.07;;;;;;;7.75;100.00;101116.22;5047066;28;20555;-77
2024/03/13 05:51:21;;;;;;;22.38;11.25;;;;;;;7.75;100.00;101122.19;5053526;28;20036;-77
2024/03/13 05:53:47;;;;;;;21.92;11.02;;;;;;;7.88;100.00;101119.38;5044252;28;20037;-77
2024/03/13 05:56:12;;;;;;;21.40;10.07;;;;;;;7.82;100.00;101117.31;5032571;28;20059;-77
2024/03/13 05:58:41;;;;;;;20.25;10.25;;;;;;;7.80;100.00;101117.44;5035811;28;20037;-78
2024/03/13 06:01:09;;;;;;;23.58;10.88;;;;;;;7.83;100.00;101120.72;5043874;28;20037;-78
2024/03/13 06:03:35;;;;;;;21.13;9.73;;;;;;;7.81;100.00;101123.44;5053262;28;20047;-76
2024/03/13 06:06:00;;;;;;;21.35;10.15;;;;;;;7.83;100.00;101126.69;5053755;28;20036;-77
2024/03/13 06:08:27;;;;;;;20.92;9.90;;;;;;;7.86;100.00;101125.63;5036316;28;20025;-76
2024/03/13 06:10:53;;;;;;;24.95;11.75;;;;;;;7.97;100.00;101133.28;5047689;28;20123;-76
2024/03/13 06:13:19;;;;;;;26.27;12.25;;;;;;;7.97;100.00;101130.69;5057454;28;20663;-77
2024/03/13 06:15:44;;;;;;;33.45;12.45;;;;;;;8.08;100.00;101133.19;5069762;28;20032;-77
2024/03/13 06:18:10;;;;;;;25.70;12.75;;;;;;;8.10;100.00;101146.78;5037490;28;20044;-76
2024/03/13 06:20:36;;;;;;;31.05;13.45;;;;;;;8.15;100.00;101148.97;5052782;28;20051;-77
2024/03/13 06:23:01;;;;;;;35.75;15.10;;;;;;;8.26;100.00;101148.84;5052611;28;20677;-76
2024/03/13 06:25:28;;;;;;;38.53;15.40;;;;;;;8.30;100.00;101145.06;5070007;28;20016;-76
2024/03/13 06:28:01;;;;;;;43.83;15.93;;;;;;;8.46;100.00;101148.94;5050759;28;20411;-76
2024/03/13 06:30:26;;;;;;;;;;;;;;;8.58;100.00;101151.25;5043714;28;20119;-76
2024/03/13 06:32:51;;;;;;;46.92;18.35;;;;;;;8.60;100.00;101160.66;5039634;28;20000;-77
2024/03/13 06:35:17;;;;;;;45.47;17.73;;;;;;;8.69;100.00;101155.50;5068669;28;20441;-76
2024/03/13 06:37:42;;;;;;;48.83;17.58;;;;;;;8.73;100.00;101154.25;5052012;28;20028;-76
2024/03/13 06:40:08;;;;;;;49.95;18.98;;;;;;;8.80;100.00;101154.56;5049685;28;20467;-77
2024/03/13 06:42:35;;;;;;;51.70;20.60;;;;;;;8.93;100.00;101151.69;5069579;28;20404;-77
2024/03/13 06:45:00;;;;;;;55.63;20.33;;;;;;;8.92;100.00;101165.56;5071103;28;20777;-76
2024/03/13 06:47:26;;;;;;;59.08;21.08;;;;;;;8.95;100.00;101160.94;5052094;28;20039;-77
2024/03/13 06:49:51;;;;;;;52.45;20.77;;;;;;;8.95;100.00;101171.28;5048809;28;20086;-76
2024/03/13 06:52:16;;;;;;;52.88;20.20;;;;;;;9.19;100.00;101161.47;5052870;28;20036;-77
2024/03/13 06:54:43;;;;;;;49.72;19.75;;;;;;;9.18;100.00;101170.19;5068382;28;20545;-77
2024/03/13 06:57:15;;;;;;;50.97;20.48;;;;;;;9.03;100.00;101173.19;5067020;28;20112;-77
2024/03/13 06:59:44;;;;;;;50.10;20.80;;;;;;;8.98;100.00;101177.16;5068767;28;20029;-76
2024/03/13 07:02:14;;;;;;;63.40;22.92;;;;;;;9.09;100.00;101182.19;5050867;28;20051;-77
2024/03/13 07:04:39;;;;;;;58.53;22.10;;;;;;;9.15;100.00;101179.03;5054070;28;20032;-78
2024/03/13 07:07:05;;;;;;;58.67;23.35;;;;;;;9.21;100.00;101181.09;5063534;28;20024;-77
2024/03/13 07:09:31;;;;;;;66.88;25.00;;;;;;;9.19;100.00;101177.81;5050864;28;20021;-76
2024/03/13 07:11:57;;;;;;;64.55;25.65;;;;;;;9.21;100.00;101182.84;5048975;28;20041;-78
2024/03/13 07:14:23;;;;;;;79.95;31.15;;;;;;;9.21;100.00;101191.44;5050624;28;20048;-77
2024/03/13 07:16:49;;;;;;;119.38;50.40;;;;;;;9.17;100.00;101195.25;5051748;28;20036;-79
2024/03/13 07:19:15;;;;;;;84.57;33.85;;;;;;;9.13;100.00;101194.69;5050854;28;20036;-76
2024/03/13 07:21:40;;;;;;;63.53;25.70;;;;;;;9.19;100.00;101198.50;5054050;28;20166;-77
2024/03/13 07:24:06;;;;;;;53.78;22.65;;;;;;;9.17;100.00;101200.41;5049423;28;20051;-76
2024/03/13 07:26:32;;;;;;;58.67;26.48;;;;;;;9.12;100.00;101203.44;5054991;28;20051;-77
2024/03/13 07:29:00;;;;;;;51.85;22.92;;;;;;;9.23;100.00;101197.31;5050981;28;20052;-77
2024/03/13 07:31:26;;;;;;;57.47;22.52;;;;;;;9.27;100.00;101200.44;5058665;28;20046;-76
2024/03/13 07:33:52;;;;;;;48.95;19.25;;;;;;;9.27;100.00;101200.44;5055172;28;20033;-76
2024/03/13 07:36:21;;;;;;;45.80;18.40;;;;;;;9.30;100.00;101206.13;5067732;28;20040;-78
2024/03/13 07:38:47;;;;;;;52.88;23.00;;;;;;;9.31;100.00;101207.78;5048402;28;20111;-77
2024/03/13 07:41:13;;;;;;;53.40;23.58;;;;;;;9.29;100.00;101208.88;5037365;28;20475;-77
2024/03/13 07:43:39;;;;;;;34.33;15.13;;;;;;;9.36;100.00;101209.94;5052954;28;20036;-76
2024/03/13 07:46:04;;;;;;;61.13;28.50;;;;;;;9.40;100.00;101216.50;5051060;28;20533;-77
2024/03/13 07:48:30;;;;;;;34.65;13.73;;;;;;;9.40;100.00;101220.84;5067234;28;20041;-76
2024/03/13 07:50:55;;;;;;;32.92;12.93;;;;;;;9.47;100.00;101222.72;5041439;28;20787;-77
2024/03/13 07:53:21;;;;;;;32.20;13.98;;;;;;;9.45;100.00;101218.66;5047785;28;20605;-76
2024/03/13 07:55:50;;;;;;;26.67;11.77;;;;;;;9.46;100.00;101221.09;5036717;28;20439;-78
2024/03/13 07:58:15;;;;;;;24.10;9.88;;;;;;;9.42;100.00;101222.34;5048794;28;20040;-76
2024/03/13 08:00:41;;;;;;;28.75;11.85;;;;;;;9.35;100.00;101219.47;5066616;28;20016;-76
2024/03/13 08:03:07;;;;;;;23.88;10.48;;;;;;;9.56;100.00;101226.25;5034221;28;20037;-77
2024/03/13 08:05:33;;;;;;;29.63;12.02;;;;;;;9.42;100.00;101219.75;5065300;28;20033;-76
2024/03/13 08:07:59;;;;;;;30.90;13.05;;;;;;;9.43;100.00;101208.44;5050802;28;20037;-77
2024/03/13 08:10:28;;;;;;;36.58;16.83;;;;;;;9.52;100.00;101217.16;5065920;28;20051;-77
2024/03/13 08:12:56;;;;;;;26.92;12.77;;;;;;;9.51;100.00;101216.34;5046267;28;20509;-76
2024/03/13 08:15:22;;;;;;;27.92;11.50;;;;;;;9.54;100.00;101218.63;5054719;28;20146;-76
2024/03/13 08:17:47;;;;;;;30.80;14.27;;;;;;;9.52;100.00;101217.97;5044229;28;20640;-76
2024/03/13 08:20:14;;;;;;;36.40;11.85;;;;;;;9.63;100.00;101221.38;5066192;28;20027;-76
2024/03/13 08:22:43;;;;;;;34.42;12.50;;;;;;;9.69;100.00;101231.97;5064215;28;20464;-77
2024/03/13 08:25:15;;;;;;;35.35;13.35;;;;;;;9.68;100.00;101216.56;5045745;28;20026;-77
2024/03/13 08:27:41;;;;;;;30.90;16.13;;;;;;;9.70;100.00;101219.81;5050279;28;20098;-77
2024/03/13 08:30:07;;;;;;;52.75;25.33;;;;;;;9.78;100.00;101227.72;5050813;28;20032;-77
2024/03/13 08:32:32;;;;;;;29.17;11.57;;;;;;;9.74;100.00;101226.38;5053699;28;20048;-77
2024/03/13 08:34:58;;;;;;;26.08;11.52;;;;;;;9.74;100.00;101224.59;5051193;28;20044;-77
2024/03/13 08:37:26;;;;;;;30.77;12.98;;;;;;;9.83;100.00;101224.72;5048747;28;20084;-76
2024/03/13 08:39:52;;;;;;;33.25;11.70;;;;;;;9.83;100.00;101222.97;5046984;28;20036;-76
2024/03/13 08:42:21;;;;;;;26.73;12.38;;;;;;;9.96;100.00;101225.22;5063582;28;20041;-76
2024/03/13 08:44:47;;;;;;;37.75;18.70;;;;;;;9.89;100.00;101229.34;5049247;28;20459;-76
2024/03/13 08:47:13;;;;;;;29.67;12.05;;;;;;;9.99;100.00;101227.53;5045869;28;20488;-77
2024/03/13 08:49:38;;;;;;;34.13;13.07;;;;;;;10.10;100.00;101229.94;5055995;28;20047;-78
2024/03/13 08:52:04;;;;;;;36.28;15.55;;;;;;;10.14;100.00;101235.66;5047631;28;20043;-76
2024/03/13 08:54:29;;;;;;;31.83;11.95;;;;;;;10.06;100.00;101236.38;5064270;28;20101;-76
2024/03/13 08:56:55;;;;;;;59.97;28.33;;;;;;;10.19;100.00;101246.44;5049530;28;20386;-77
2024/03/13 08:59:20;;;;;;;32.30;12.57;;;;;;;10.15;100.00;101245.06;5049024;28;20437;-77
2024/03/13 09:01:46;;;;;;;35.97;12.65;;;;;;;10.24;100.00;101241.59;5048144;28;20028;-76
2024/03/13 09:04:11;;;;;;;37.22;15.05;;;;;;;10.20;100.00;101245.44;5055555;28;20040;-76
2024/03/13 09:06:38;;;;;;;26.55;14.05;;;;;;;10.21;100.00;101243.66;5035794;28;20993;-77
2024/03/13 09:09:04;;;;;;;31.15;11.63;;;;;;;10.30;100.00;101250.59;5046013;28;20037;-78
2024/03/13 09:11:30;;;;;;;26.77;13.15;;;;;;;10.25;100.00;101238.06;5050874;28;20028;-76
2024/03/13 09:14:01;;;;;;;27.33;11.25;;;;;;;10.35;100.00;101245.84;5064391;28;20037;-78
2024/03/13 09:16:28;;;;;;;28.38;11.07;;;;;;;10.47;100.00;101244.69;5052092;28;20036;-77
2024/03/13 09:18:54;;;;;;;37.53;12.98;;;;;;;10.50;100.00;101249.56;5065331;28;20024;-80
2024/03/13 09:21:19;;;;;;;37.45;15.27;;;;;;;10.56;100.00;101250.78;5050845;28;20482;-77
2024/03/13 09:23:44;;;;;;;24.15;10.93;;;;;;;10.67;100.00;101250.56;5063201;28;20035;-77
2024/03/13 09:26:10;;;;;;;26.13;8.85;;;;;;;10.79;100.00;101247.78;5049077;28;20439;-78
2024/03/13 09:28:35;;;;;;;18.90;9.48;;;;;;;10.76;100.00;101240.31;5045995;28;20040;-76
2024/03/13 09:31:02;;;;;;;20.08;8.50;;;;;;;10.67;100.00;101239.38;5054436;28;20517;-77
2024/03/13 09:33:28;;;;;;;14.93;7.10;;;;;;;10.74;100.00;101242.19;5065013;28;20211;-76
2024/03/13 09:35:54;;;;;;;14.50;6.82;;;;;;;10.73;100.00;101238.00;5050116;28;20036;-77
2024/03/13 09:38:21;;;;;;;19.55;7.30;;;;;;;10.74;100.00;101239.59;5055771;28;20036;-76
2024/03/13 09:40:48;;;;;;;15.75;7.35;;;;;;;10.81;100.00;101232.88;5055435;28;20039;-77
2024/03/13 09:43:14;;;;;;;15.50;7.38;;;;;;;10.95;100.00;101231.56;5068438;28;20384;-76
2024/03/13 09:45:44;;;;;;;11.80;6.60;;;;;;;10.93;100.00;101234.31;5036418;28;20074;-77
2024/03/13 09:48:12;;;;;;;15.13;6.25;;;;;;;10.86;100.00;101241.03;5053251;28;20037;-78
2024/03/13 09:50:41;;;;;;;14.40;6.40;;;;;;;10.82;100.00;101231.94;5071554;28;20074;-76
2024/03/13 09:53:10;;;;;;;13.80;5.90;;;;;;;10.99;100.00;101235.50;5050489;28;20043;-77
2024/03/13 09:55:40;;;;;;;11.82;5.40;;;;;;;10.81;100.00;101225.94;5036420;28;20035;-77
2024/03/13 09:58:11;;;;;;;11.75;5.65;;;;;;;10.80;100.00;101231.25;5052250;28;20090;-76
2024/03/13 10:00:38;;;;;;;11.18;5.30;;;;;;;10.79;100.00;101227.84;5058522;28;20110;-76
2024/03/13 10:03:15;;;;;;;12.98;5.15;;;;;;;10.77;100.00;101236.72;5055736;28;20119;-77
2024/03/13 10:05:42;;;;;;;11.77;5.30;;;;;;;10.89;100.00;101230.38;5071021;28;20040;-77
2024/03/13 10:08:10;;;;;;;8.43;4.63;;;;;;;10.83;100.00;101233.53;5069230;28;20043;-78
2024/03/13 10:10:38;;;;;;;17.05;5.72;;;;;;;10.80;100.00;101234.66;5055968;28;20020;-77
2024/03/13 10:13:08;;;;;;;10.68;4.53;;;;;;;10.85;100.00;101236.81;5069072;28;20044;-79
2024/03/13 10:15:36;;;;;;;9.32;4.38;;;;;;;10.93;100.00;101241.28;5038765;28;20024;-78
2024/03/13 10:18:17;;;;;;;11.13;4.40;;;;;;;11.04;100.00;101235.88;5068415;28;20119;-77
2024/03/13 10:20:51;;;;;;;11.93;4.55;;;;;;;11.04;100.00;101238.47;5050594;28;20174;-77
2024/03/13 10:23:20;;;;;;;12.02;4.28;;;;;;;11.14;100.00;101235.78;5041525;28;20033;-78
2024/03/13 10:25:47;;;;;;;8.68;4.55;;;;;;;11.14;100.00;101243.59;5038450;28;20038;-77
2024/03/13 10:28:16;;;;;;;8.93;4.32;;;;;;;11.09;100.00;101231.88;5054979;28;20548;-77
2024/03/13 10:30:43;;;;;;;9.07;3.85;;;;;;;11.12;100.00;101240.31;5065357;28;20055;-77
2024/03/13 10:33:10;;;;;;;10.45;4.28;;;;;;;11.19;100.00;101243.94;5049241;28;20040;-78
2024/03/13 10:35:35;;;;;;;10.98;3.92;;;;;;;11.12;100.00;101240.31;5053846;28;20021;-78
2024/03/13 10:38:01;;;;;;;10.10;3.63;;;;;;;11.17;100.00;101246.69;5046607;28;20439;-77
2024/03/13 10:40:30;;;;;;;6.85;3.72;;;;;;;11.16;100.00;101241.66;5069345;28;20086;-78
2024/03/13 10:42:56;;;;;;;11.00;3.72;;;;;;;11.02;100.00;101245.56;5049282;28;20463;-78
2024/03/13 10:45:22;;;;;;;8.77;4.15;;;;;;;11.11;100.00;101244.69;5056132;28;20107;-77
2024/03/13 10:47:48;;;;;;;9.80;3.90;;;;;;;11.25;100.00;101245.94;5039103;28;20067;-77
2024/03/13 10:50:14;;;;;;;10.60;3.42;;;;;;;11.24;100.00;101242.53;5036000;28;20033;-77
2024/03/13 10:52:44;;;;;;;7.82;3.70;;;;;;;11.17;100.00;101246.69;5053614;28;20060;-78
2024/03/13 10:55:09;;;;;;;10.60;3.75;;;;;;;11.10;100.00;101249.06;5071224;28;20498;-77
2024/03/13 10:57:38;;;;;;;6.45;3.10;;;;;;;11.13;100.00;101250.53;5042117;28;20040;-77
2024/03/13 11:00:17;;;;;;;8.75;3.22;;;;;;;11.13;100.00;101258.31;5050907;28;20028;-76
2024/03/13 11:02:42;;;;;;;6.47;3.50;;;;;;;11.20;100.00;101254.16;5061001;28;20040;-77
2024/03/13 11:05:11;;;;;;;6.57;3.67;;;;;;;11.21;100.00;101253.22;5039667;28;20028;-77
2024/03/13 11:07:37;;;;;;;6.68;4.35;;;;;;;11.24;100.00;101249.50;5053017;28;20049;-77
2024/03/13 11:10:09;;;;;;;7.32;3.70;;;;;;;11.12;100.00;101258.50;5045984;28;20090;-78
2024/03/13 11:12:38;;;;;;;13.00;3.90;;;;;;;11.32;100.00;101256.53;5039370;28;20057;-77
2024/03/13 11:15:09;;;;;;;8.50;3.95;;;;;;;11.32;100.00;101262.56;5032241;28;20056;-77
2024/03/13 11:17:36;;;;;;;5.88;3.30;;;;;;;11.24;100.00;101262.47;5035428;28;22589;-77
2024/03/13 11:20:07;;;;;;;9.30;4.05;;;;;;;11.27;100.00;101252.63;5042980;28;20687;-77
2024/03/13 11:22:35;;;;;;;7.60;3.80;;;;;;;11.18;100.00;101263.09;5049527;28;20051;-78
2024/03/13 11:25:05;;;;;;;10.85;4.38;;;;;;;11.12;100.00;101268.88;5059262;28;20071;-77
2024/03/13 11:27:35;;;;;;;7.15;3.65;;;;;;;11.24;100.00;101265.88;5048982;28;20491;-78
2024/03/13 11:30:03;;;;;;;8.05;3.60;;;;;;;11.19;100.00;101260.34;5049702;28;20686;-77
2024/03/13 11:32:30;;;;;;;5.63;3.60;;;;;;;11.15;100.00;101269.41;5059988;28;20131;-77